Time;durP1;ratioP1;P1;durP2;ratioP2;P2;SDS_P1;SDS_P2;PMS_P1;PMS_P2;Temp;Humidity;BMP_temperature;BMP_pressure;BME280_temperature;BME280_humidity;BME280_pressure;Samples;Min_cycle;Max_cycle;Signal;HPM_P1;HPM_P2
2023/05/03 00:01:30;;;;;;;6.97;2.88;;;8.50;1.00;;;;;;5089371;28;20405;-67
2023/05/03 00:03:56;;;;;;;7.53;3.08;;;8.60;1.00;;;;;;5089042;28;20492;-68
2023/05/03 00:06:21;;;;;;;8.60;3.20;;;8.50;1.00;;;;;;5089086;28;20478;-67
2023/05/03 00:08:47;;;;;;;5.72;3.13;;;8.60;1.00;;;;;;5089393;28;20124;-67
2023/05/03 00:11:12;;;;;;;6.95;3.30;;;8.60;1.00;;;;;;5090132;28;20043;-67
2023/05/03 00:13:38;;;;;;;4.88;3.20;;;8.70;18.30;;;;;;5092737;28;20047;-67
2023/05/03 00:16:04;;;;;;;11.23;3.55;;;8.70;39.80;;;;;;5092013;28;20100;-67
2023/05/03 00:18:30;;;;;;;9.25;3.30;;;8.70;56.30;;;;;;5092489;28;20055;-67
2023/05/03 00:20:57;;;;;;;8.85;3.20;;;8.70;61.10;;;;;;5093306;28;20068;-67
2023/05/03 00:23:23;;;;;;;11.23;3.20;;;8.70;62.20;;;;;;5092718;28;20028;-67
2023/05/03 00:25:56;;;;;;;8.07;3.08;;;8.70;53.10;;;;;;5074701;28;20501;-67
2023/05/03 00:28:23;;;;;;;8.68;3.33;;;8.70;30.40;;;;;;5092822;28;20524;-67
2023/05/03 00:30:48;;;;;;;5.97;3.10;;;8.60;8.00;;;;;;5082221;28;20063;-67
2023/05/03 00:33:15;;;;;;;7.30;3.30;;;8.70;1.00;;;;;;5092089;28;20130;-67
2023/05/03 00:35:41;;;;;;;6.93;3.20;;;8.70;1.00;;;;;;5092437;28;20094;-68
2023/05/03 00:38:07;;;;;;;7.38;3.15;;;8.70;1.00;;;;;;5091583;28;20052;-67
2023/05/03 00:40:32;;;;;;;3.75;2.75;;;8.60;1.00;;;;;;5093168;28;20055;-67
2023/05/03 00:42:58;;;;;;;12.23;3.40;;;8.70;1.00;;;;;;5092748;28;20460;-67
2023/05/03 00:45:23;;;;;;;6.68;3.00;;;8.60;1.00;;;;;;5092873;28;20047;-67
2023/05/03 00:47:49;;;;;;;6.00;3.20;;;8.70;1.00;;;;;;5092337;28;20378;-67
2023/05/03 00:50:15;;;;;;;4.55;2.70;;;8.70;1.00;;;;;;5075238;28;20414;-67
2023/05/03 00:52:41;;;;;;;10.77;3.10;;;8.60;1.00;;;;;;5091971;28;20577;-67
2023/05/03 00:55:08;;;;;;;7.47;3.05;;;8.70;1.00;;;;;;5090654;28;20182;-67
2023/05/03 00:57:34;;;;;;;9.95;3.20;;;8.70;1.00;;;;;;5092115;28;20089;-67
2023/05/03 00:59:59;;;;;;;8.45;2.92;;;8.70;1.00;;;;;;5092483;28;20435;-67
2023/05/03 01:02:26;;;;;;;9.35;3.35;;;8.60;1.00;;;;;;5092277;28;20044;-67
2023/05/03 01:04:53;;;;;;;5.28;3.20;;;8.70;1.00;;;;;;5090104;28;20048;-67
2023/05/03 01:07:32;;;;;;;5.00;3.05;;;8.60;1.00;;;;;;5090777;28;20055;-67
2023/05/03 01:10:22;;;;;;;8.25;3.00;;;8.60;1.00;;;;;;5072756;28;20047;-67
2023/05/03 01:13:09;;;;;;;6.03;3.38;;;8.60;1.00;;;;;;5091795;28;20413;-67
2023/05/03 01:15:52;;;;;;;10.35;3.30;;;8.60;11.20;;;;;;5092166;28;20086;-67
2023/05/03 01:18:22;;;;;;;6.75;2.90;;;8.50;14.20;;;;;;5092186;28;20520;-67
2023/05/03 01:20:50;;;;;;;8.88;3.60;;;8.50;13.10;;;;;;5091940;28;20127;-68
2023/05/03 01:23:43;;;;;;;5.63;3.35;;;8.50;12.10;;;;;;5091208;28;20139;-67
2023/05/03 01:26:23;;;;;;;6.22;3.22;;;8.50;8.00;;;;;;5091715;28;20085;-67
2023/05/03 01:28:48;;;;;;;9.98;3.90;;;8.40;8.80;;;;;;5090843;28;20058;-67
2023/05/03 01:31:21;;;;;;;9.38;3.45;;;8.40;9.50;;;;;;5091259;28;20044;-67
2023/05/03 01:33:56;;;;;;;7.25;3.20;;;8.40;19.60;;;;;;5092014;28;20051;-67
2023/05/03 01:36:31;;;;;;;4.82;3.13;;;8.40;47.40;;;;;;5091460;28;20139;-67
2023/05/03 01:38:57;;;;;;;4.65;3.17;;;8.50;69.30;;;;;;5091184;28;20079;-67
2023/05/03 01:41:25;;;;;;;6.28;3.50;;;8.40;91.50;;;;;;5091539;28;20044;-67
2023/05/03 01:43:52;;;;;;;3.80;3.10;;;8.40;99.90;;;;;;5091957;28;20120;-67
2023/05/03 01:46:18;;;;;;;9.35;3.20;;;8.40;99.90;;;;;;5091005;28;20108;-67
2023/05/03 01:48:43;;;;;;;5.63;3.30;;;8.50;99.90;;;;;;5091639;28;20135;-67
2023/05/03 01:51:09;;;;;;;11.88;3.17;;;8.50;99.90;;;;;;5091191;28;20044;-67
2023/05/03 01:53:36;;;;;;;6.82;3.42;;;8.50;99.90;;;;;;5091695;28;20040;-67
2023/05/03 01:56:02;;;;;;;4.78;2.78;;;8.50;99.90;;;;;;5091459;28;20036;-67
2023/05/03 01:58:27;;;;;;;4.72;3.10;;;8.50;99.90;;;;;;5090867;28;20062;-67
2023/05/03 02:00:53;;;;;;;3.70;3.35;;;8.60;99.90;;;;;;5091306;28;20490;-67
2023/05/03 02:03:19;;;;;;;3.88;3.40;;;8.60;99.90;;;;;;5091155;28;20153;-67
2023/05/03 02:05:45;;;;;;;4.45;3.30;;;8.60;99.90;;;;;;5091102;28;20040;-67
2023/05/03 02:08:10;;;;;;;5.03;3.20;;;8.60;99.90;;;;;;5090396;28;20047;-67
2023/05/03 02:10:36;;;;;;;9.75;3.40;;;8.60;99.90;;;;;;5090869;28;20040;-67
2023/05/03 02:13:02;;;;;;;22.58;3.60;;;8.50;99.90;;;;;;5087280;28;20093;-67
2023/05/03 02:15:28;;;;;;;7.18;3.45;;;8.50;99.90;;;;;;5091574;28;20115;-67
2023/05/03 02:17:54;;;;;;;9.73;3.50;;;8.50;99.90;;;;;;5090684;28;20135;-67
2023/05/03 02:20:20;;;;;;;8.93;3.72;;;8.50;99.90;;;;;;5090427;28;20406;-67
2023/05/03 02:22:45;;;;;;;7.65;4.20;;;8.50;99.90;;;;;;5089384;28;20040;-67
2023/05/03 02:25:11;;;;;;;8.43;3.75;;;8.50;99.90;;;;;;5091022;28;20516;-67
2023/05/03 02:27:36;;;;;;;17.23;3.90;;;8.50;99.90;;;;;;5082227;28;20032;-67
2023/05/03 02:30:02;;;;;;;7.07;3.28;;;8.50;99.90;;;;;;5088225;28;20044;-67
2023/05/03 02:32:28;;;;;;;6.32;3.88;;;8.60;99.90;;;;;;5090489;28;20035;-67
2023/05/03 02:34:54;;;;;;;6.82;3.88;;;8.60;99.90;;;;;;5090989;28;20599;-67
2023/05/03 02:37:20;;;;;;;10.15;3.97;;;8.60;99.90;;;;;;5090312;28;20048;-67
2023/05/03 02:39:45;;;;;;;7.63;4.18;;;8.60;1.00;;;;;;5090580;28;20548;-67
2023/05/03 02:42:11;;;;;;;9.05;4.25;;;8.60;1.00;;;;;;5089815;28;20405;-67
2023/05/03 02:44:36;;;;;;;6.93;3.63;;;8.70;1.00;;;;;;5090877;28;20040;-67
2023/05/03 02:47:02;;;;;;;7.70;4.15;;;8.70;1.00;;;;;;5090307;28;20042;-67
2023/05/03 02:49:27;;;;;;;10.43;4.55;;;8.70;1.00;;;;;;5088315;28;20044;-67
2023/05/03 02:51:55;;;;;;;7.85;4.15;;;8.70;1.00;;;;;;5090091;28;20100;-67
2023/05/03 02:54:21;;;;;;;6.05;3.53;;;8.60;1.00;;;;;;5090771;28;20044;-67
2023/05/03 02:56:46;;;;;;;13.40;4.28;;;8.60;1.00;;;;;;5089019;28;20494;-67
2023/05/03 02:59:12;;;;;;;7.82;4.38;;;8.60;1.00;;;;;;5090682;28;20033;-67
2023/05/03 03:01:37;;;;;;;7.80;3.72;;;8.60;1.00;;;;;;5088243;28;20064;-67
2023/05/03 03:04:04;;;;;;;5.70;3.42;;;8.60;1.00;;;;;;5090171;28;20043;-67
2023/05/03 03:06:30;;;;;;;5.90;3.72;;;8.70;1.00;;;;;;5088490;28;20391;-67
2023/05/03 03:08:55;;;;;;;7.15;3.80;;;8.70;1.00;;;;;;5088940;28;20044;-67
2023/05/03 03:11:22;;;;;;;11.00;3.90;;;8.70;1.00;;;;;;5089571;28;20039;-67
2023/05/03 03:13:48;;;;;;;8.52;3.60;;;8.70;1.00;;;;;;5080292;28;20079;-67
2023/05/03 03:16:13;;;;;;;7.63;4.20;;;8.60;1.00;;;;;;5085857;28;20078;-67
2023/05/03 03:18:39;;;;;;;6.47;3.40;;;8.60;1.00;;;;;;5074411;28;20040;-67
2023/05/03 03:21:05;;;;;;;9.15;3.88;;;8.60;1.00;;;;;;5089911;28;20036;-67
2023/05/03 03:23:30;;;;;;;10.02;3.47;;;8.50;1.00;;;;;;5090279;28;20084;-67
2023/05/03 03:25:56;;;;;;;7.90;3.50;;;8.60;1.00;;;;;;5089882;28;20412;-67
2023/05/03 03:28:22;;;;;;;9.50;3.45;;;8.50;1.00;;;;;;5089870;28;20124;-67
2023/05/03 03:30:47;;;;;;;8.45;3.42;;;8.50;1.00;;;;;;5089380;28;20044;-67
2023/05/03 03:33:13;;;;;;;9.30;3.75;;;8.50;1.00;;;;;;5081120;28;20524;-67
2023/05/03 03:35:38;;;;;;;6.85;3.47;;;8.50;1.00;;;;;;5071818;28;20101;-67
2023/05/03 03:38:04;;;;;;;7.30;3.63;;;8.50;1.00;;;;;;5089294;28;20044;-67
2023/05/03 03:40:30;;;;;;;4.40;3.63;;;8.50;1.00;;;;;;5089158;28;20119;-67
2023/05/03 03:42:55;;;;;;;5.93;3.40;;;8.50;1.00;;;;;;5083715;28;20071;-67
2023/05/03 03:45:21;;;;;;;8.80;3.63;;;8.50;1.00;;;;;;5089121;28;20467;-67
2023/05/03 03:47:47;;;;;;;10.20;3.33;;;8.50;1.00;;;;;;5089538;28;20032;-67
2023/05/03 03:50:12;;;;;;;4.88;3.08;;;8.50;1.00;;;;;;5089114;28;20151;-67
2023/05/03 03:52:38;;;;;;;7.93;3.30;;;8.50;1.00;;;;;;5089375;28;20059;-67
2023/05/03 03:55:05;;;;;;;6.68;3.15;;;8.50;1.00;;;;;;5089361;28;20040;-67
2023/05/03 03:57:30;;;;;;;5.93;2.80;;;8.50;1.00;;;;;;5088725;28;20066;-67
2023/05/03 03:59:57;;;;;;;9.45;2.97;;;8.60;1.00;;;;;;5088934;28;20444;-68
2023/05/03 04:02:23;;;;;;;7.55;3.50;;;8.60;1.00;;;;;;5088516;28;20128;-67
2023/05/03 04:04:48;;;;;;;6.55;3.20;;;8.60;1.00;;;;;;5089200;28;20062;-67
2023/05/03 04:07:14;;;;;;;6.47;3.00;;;8.70;99.90;;;;;;5088802;28;20040;-67
2023/05/03 04:09:40;;;;;;;7.85;3.08;;;8.70;99.90;;;;;;5089248;28;20050;-67
2023/05/03 04:12:05;;;;;;;5.93;2.70;;;8.70;99.90;;;;;;5087637;28;20043;-67
2023/05/03 04:14:31;;;;;;;5.70;3.00;;;8.70;99.90;;;;;;5088365;28;20514;-67
2023/05/03 04:16:56;;;;;;;12.13;3.00;;;8.70;99.90;;;;;;5089197;28;20036;-67
2023/05/03 04:19:24;;;;;;;7.93;3.20;;;8.70;99.90;;;;;;5089026;28;20453;-67
2023/05/03 04:21:50;;;;;;;7.32;2.97;;;8.70;99.90;;;;;;5086925;28;20093;-67
2023/05/03 04:24:16;;;;;;;4.15;2.70;;;8.70;99.90;;;;;;5084931;28;20048;-67
2023/05/03 04:26:42;;;;;;;11.35;2.60;;;8.70;99.90;;;;;;5088999;28;20039;-67
2023/05/03 04:29:09;;;;;;;7.55;2.92;;;8.70;95.80;;;;;;5089290;28;20398;-67
2023/05/03 04:31:35;;;;;;;6.53;2.55;;;8.70;51.30;;;;;;5088449;28;20375;-67
2023/05/03 04:34:00;;;;;;;8.65;3.13;;;8.60;11.00;;;;;;5088657;28;20089;-67
2023/05/03 04:36:28;;;;;;;3.42;2.33;;;8.70;1.00;;;;;;5089108;28;20036;-67
2023/05/03 04:38:54;;;;;;;5.13;2.28;;;8.70;1.00;;;;;;5088514;28;20470;-67
2023/05/03 04:41:20;;;;;;;8.43;2.10;;;8.70;1.00;;;;;;5087220;28;20084;-67
2023/05/03 04:43:46;;;;;;;3.70;1.80;;;8.70;99.90;;;;;;5086102;28;20471;-67
2023/05/03 04:46:12;;;;;;;4.60;2.47;;;8.80;99.90;;;;;;5088286;28;20040;-67
2023/05/03 04:48:37;;;;;;;5.88;2.70;;;8.90;99.90;;;;;;5085966;28;20075;-67
2023/05/03 04:51:03;;;;;;;7.95;2.67;;;8.90;99.90;;;;;;5087255;28;20504;-67
2023/05/03 04:53:29;;;;;;;15.07;3.00;;;8.90;99.90;;;;;;5088040;28;20494;-67
2023/05/03 04:55:55;;;;;;;6.88;2.40;;;8.90;99.90;;;;;;5087613;28;20409;-67
2023/05/03 04:58:21;;;;;;;7.70;2.53;;;8.90;99.90;;;;;;5090399;28;20048;-67
2023/05/03 05:00:46;;;;;;;6.68;2.40;;;9.00;96.40;;;;;;5091713;28;20036;-67
2023/05/03 05:03:12;;;;;;;8.32;2.45;;;9.00;49.30;;;;;;5092652;28;20462;-67
2023/05/03 05:05:37;;;;;;;5.40;3.00;;;9.10;16.20;;;;;;5088284;28;20498;-67
2023/05/03 05:08:03;;;;;;;7.63;2.83;;;9.10;1.00;;;;;;5086142;28;20474;-65
2023/05/03 05:10:29;;;;;;;4.55;2.55;;;9.10;1.00;;;;;;5090256;28;20110;-65
2023/05/03 05:12:55;;;;;;;5.95;2.72;;;9.10;1.00;;;;;;5089071;28;20048;-65
2023/05/03 05:15:20;;;;;;;8.50;2.40;;;9.10;1.00;;;;;;5090715;28;20032;-65
2023/05/03 05:17:46;;;;;;;4.15;3.10;;;9.10;1.00;;;;;;5090518;28;20382;-65
2023/05/03 05:20:12;;;;;;;7.78;3.45;;;9.10;1.00;;;;;;5091893;28;20397;-65
2023/05/03 05:22:40;;;;;;;7.70;3.83;;;9.10;1.00;;;;;;5092040;28;20117;-65
2023/05/03 05:25:07;;;;;;;9.43;2.88;;;9.10;1.00;;;;;;5074898;28;20036;-65
2023/05/03 05:27:35;;;;;;;7.47;3.38;;;9.10;1.00;;;;;;5089593;28;20111;-65
2023/05/03 05:30:01;;;;;;;8.60;2.97;;;9.20;1.00;;;;;;5089099;28;20047;-65
2023/05/03 05:32:27;;;;;;;8.18;3.35;;;9.20;1.00;;;;;;5089548;28;20447;-65
2023/05/03 05:34:54;;;;;;;9.70;2.97;;;9.20;3.60;;;;;;5086341;28;20037;-65
2023/05/03 05:37:21;;;;;;;4.65;2.92;;;9.20;17.00;;;;;;5089760;28;20512;-65
2023/05/03 05:39:47;;;;;;;5.43;3.00;;;9.20;25.70;;;;;;5087853;28;20040;-65
2023/05/03 05:42:13;;;;;;;7.43;2.80;;;9.30;23.60;;;;;;5083120;28;20040;-65
2023/05/03 05:44:38;;;;;;;7.05;4.05;;;9.30;10.70;;;;;;5087691;28;20104;-65
2023/05/03 05:47:05;;;;;;;8.25;4.00;;;9.30;2.60;;;;;;5087598;28;20040;-65
2023/05/03 05:49:31;;;;;;;5.75;2.97;;;9.40;4.30;;;;;;5090719;28;20039;-65
2023/05/03 05:51:56;;;;;;;5.03;3.60;;;9.30;13.40;;;;;;5085071;28;20085;-65
2023/05/03 05:54:22;;;;;;;5.50;3.60;;;9.30;22.20;;;;;;5088215;28;20048;-65
2023/05/03 05:56:48;;;;;;;8.07;3.22;;;9.30;27.50;;;;;;5084292;28;20439;-65
2023/05/03 05:59:13;;;;;;;6.25;3.72;;;9.30;42.00;;;;;;5087164;28;20040;-65
2023/05/03 06:01:44;;;;;;;7.45;4.28;;;9.30;58.20;;;;;;5088108;28;20089;-65
2023/05/03 06:04:11;;;;;;;6.72;3.70;;;9.30;81.10;;;;;;5083462;28;20036;-62
2023/05/03 06:06:36;;;;;;;5.03;2.90;;;9.40;99.30;;;;;;5088739;28;20185;-62
2023/05/03 06:09:02;;;;;;;8.00;3.75;;;9.40;99.90;;;;;;5086426;28;20123;-65
2023/05/03 06:11:28;;;;;;;5.30;3.08;;;9.40;99.90;;;;;;5087665;28;20036;-65
2023/05/03 06:13:55;;;;;;;7.82;4.28;;;9.40;99.90;;;;;;5088258;28;20051;-66
2023/05/03 06:16:21;;;;;;;12.20;3.90;;;9.40;99.90;;;;;;5087975;28;20478;-65
2023/05/03 06:18:47;;;;;;;6.57;3.88;;;9.60;99.90;;;;;;5083973;28;20123;-65
2023/05/03 06:21:12;;;;;;;5.65;3.00;;;9.50;99.90;;;;;;5087700;28;20031;-65
2023/05/03 06:23:39;;;;;;;3.33;2.72;;;9.50;99.90;;;;;;5089978;28;20031;-65
2023/05/03 06:26:05;;;;;;;5.53;3.15;;;9.60;93.50;;;;;;5088906;28;20410;-65
2023/05/03 06:28:30;;;;;;;5.40;2.95;;;9.60;55.30;;;;;;5088795;28;20119;-65
2023/05/03 06:30:56;;;;;;;5.53;2.75;;;9.70;33.50;;;;;;5086740;28;20139;-65
2023/05/03 06:33:21;;;;;;;6.35;2.58;;;9.70;8.80;;;;;;5086091;28;20036;-65
2023/05/03 06:35:47;;;;;;;5.75;3.05;;;9.70;1.00;;;;;;5085670;28;20032;-66
2023/05/03 06:38:13;;;;;;;5.97;2.65;;;9.80;1.00;;;;;;5081924;28;20096;-66
2023/05/03 06:40:40;;;;;;;6.80;2.67;;;9.90;1.00;;;;;;5073305;28;20071;-66
2023/05/03 06:43:08;;;;;;;7.18;3.22;;;9.90;1.00;;;;;;5089966;28;20444;-66
2023/05/03 06:45:34;;;;;;;11.32;3.75;;;10.00;1.00;;;;;;5089558;28;20352;-66
2023/05/03 06:48:00;;;;;;;9.18;2.60;;;10.10;99.90;;;;;;5090800;28;20035;-66
2023/05/03 06:50:25;;;;;;;3.40;2.28;;;10.20;99.90;;;;;;5074891;28;20039;-66
2023/05/03 06:52:51;;;;;;;5.70;2.22;;;10.20;99.90;;;;;;5090651;28;20035;-66
2023/05/03 06:55:17;;;;;;;7.40;1.95;;;10.30;99.90;;;;;;5089402;28;20101;-66
2023/05/03 06:57:42;;;;;;;5.90;2.17;;;10.40;99.90;;;;;;5088701;28;20490;-66
2023/05/03 07:00:10;;;;;;;4.43;2.10;;;10.40;99.90;;;;;;5085422;28;20046;-66
2023/05/03 07:02:36;;;;;;;5.57;2.10;;;10.40;99.90;;;;;;5086878;28;20028;-66
2023/05/03 07:05:01;;;;;;;8.82;2.33;;;10.40;99.90;;;;;;5089990;28;20036;-66
2023/05/03 07:07:27;;;;;;;3.65;2.03;;;10.50;99.90;;;;;;5088980;28;20116;-66
2023/05/03 07:09:53;;;;;;;4.53;2.30;;;10.50;99.90;;;;;;5088882;28;20067;-66
2023/05/03 07:12:18;;;;;;;6.35;2.08;;;10.60;99.90;;;;;;5089863;28;20051;-66
2023/05/03 07:14:44;;;;;;;5.72;2.25;;;10.70;99.90;;;;;;5087714;28;20494;-66
2023/05/03 07:17:10;;;;;;;7.80;2.13;;;10.80;99.90;;;;;;5090425;28;20043;-66
2023/05/03 07:19:36;;;;;;;4.00;1.90;;;10.80;90.80;;;;;;5090215;28;20050;-66
2023/05/03 07:22:02;;;;;;;4.40;2.20;;;10.80;71.60;;;;;;5089361;28;20160;-66
2023/05/03 07:24:28;;;;;;;8.30;2.10;;;10.90;54.80;;;;;;5088148;28;20122;-66
2023/05/03 07:26:53;;;;;;;6.47;1.95;;;12.70;35.40;;;;;;5082588;28;20123;-66
2023/05/03 07:29:20;;;;;;;4.38;1.88;;;10.90;26.80;;;;;;5087220;28;20494;-66
2023/05/03 07:31:46;;;;;;;5.47;2.30;;;10.90;11.90;;;;;;5085649;28;20413;-66
2023/05/03 07:34:11;;;;;;;8.68;2.00;;;11.00;1.00;;;;;;5086719;28;20040;-66
2023/05/03 07:36:38;;;;;;;4.55;2.00;;;11.00;1.00;;;;;;5089458;28;20506;-65
2023/05/03 07:39:04;;;;;;;8.38;2.50;;;11.00;1.00;;;;;;5087700;28;20119;-66
2023/05/03 07:41:30;;;;;;;10.02;2.10;;;11.40;1.00;;;;;;5072325;28;20085;-66
2023/05/03 07:43:56;;;;;;;7.72;2.30;;;11.60;1.00;;;;;;5082719;28;20036;-66
2023/05/03 07:46:22;;;;;;;4.18;2.08;;;12.00;1.00;;;;;;5084673;28;20036;-66
2023/05/03 07:48:48;;;;;;;6.22;2.10;;;12.30;1.00;;;;;;5084726;28;20075;-66
2023/05/03 07:51:13;;;;;;;6.82;2.05;;;12.10;1.00;;;;;;5084613;28;20505;-66
2023/05/03 07:53:39;;;;;;;4.55;1.90;;;11.90;1.00;;;;;;5082033;28;20662;-66
2023/05/03 07:56:06;;;;;;;6.63;2.20;;;11.60;1.00;;;;;;5084225;28;20106;-66
2023/05/03 07:58:32;;;;;;;5.30;1.95;;;11.50;1.00;;;;;;5085926;28;20047;-66
2023/05/03 08:00:57;;;;;;;4.53;1.83;;;11.40;1.00;;;;;;5084752;28;20414;-66
2023/05/03 08:03:23;;;;;;;5.28;2.20;;;11.40;1.00;;;;;;5085459;28;20064;-66
2023/05/03 08:05:49;;;;;;;7.22;2.10;;;11.50;1.00;;;;;;5086450;28;20710;-66
2023/05/03 08:08:15;;;;;;;8.80;2.38;;;11.30;1.00;;;;;;5082282;28;20042;-66
2023/05/03 08:10:40;;;;;;;6.93;2.30;;;11.40;1.00;;;;;;5075210;28;20028;-66
2023/05/03 08:13:07;;;;;;;6.38;2.10;;;11.30;1.00;;;;;;5088460;28;20146;-66
2023/05/03 08:15:32;;;;;;;6.10;1.95;;;11.30;1.00;;;;;;5088929;28;20554;-66
2023/05/03 08:17:59;;;;;;;3.83;1.92;;;11.40;1.00;;;;;;5088762;28;20115;-66
2023/05/03 08:20:28;;;;;;;4.63;1.70;;;11.50;1.00;;;;;;5086064;28;20131;-66
2023/05/03 08:22:58;;;;;;;7.13;2.03;;;11.50;1.00;;;;;;5088171;28;20162;-66
2023/05/03 08:25:24;;;;;;;4.82;1.63;;;11.50;1.00;;;;;;5089107;28;20067;-66
2023/05/03 08:27:51;;;;;;;7.43;2.17;;;11.50;1.00;;;;;;5088131;28;20798;-66
2023/05/03 08:30:16;;;;;;;5.65;2.15;;;11.50;1.00;;;;;;5087273;28;20500;-66
2023/05/03 08:32:42;;;;;;;4.78;1.95;;;11.50;1.00;;;;;;5072113;28;20135;-67
2023/05/03 08:35:08;;;;;;;6.75;2.22;;;11.60;1.00;;;;;;5091389;28;20571;-66
2023/05/03 08:37:38;;;;;;;7.82;2.00;;;11.60;1.00;;;;;;5092310;28;20123;-66
2023/05/03 08:40:05;;;;;;;4.70;1.92;;;11.50;1.00;;;;;;5087899;28;20533;-66
2023/05/03 08:42:32;;;;;;;5.03;1.73;;;11.50;1.00;;;;;;5089624;28;20506;-66
2023/05/03 08:44:58;;;;;;;5.38;2.03;;;11.50;1.00;;;;;;5092381;28;20040;-66
2023/05/03 08:47:25;;;;;;;5.90;2.08;;;11.50;1.00;;;;;;5090897;28;20566;-66
2023/05/03 08:49:52;;;;;;;6.40;2.25;;;11.50;1.00;;;;;;5086113;28;20054;-66
2023/05/03 08:52:20;;;;;;;5.72;2.10;;;11.50;1.00;;;;;;5091754;28;20103;-66
2023/05/03 08:54:48;;;;;;;6.55;2.47;;;11.50;1.00;;;;;;5092836;28;20082;-66
2023/05/03 08:57:14;;;;;;;6.10;2.40;;;11.50;1.00;;;;;;5090617;28;20055;-66
2023/05/03 08:59:50;;;;;;;7.53;2.33;;;11.40;1.00;;;;;;5092128;28;20032;-66
2023/05/03 09:02:16;;;;;;;8.55;2.00;;;11.50;1.00;;;;;;5088580;28;20470;-66
2023/05/03 09:04:42;;;;;;;13.02;3.35;;;11.50;1.00;;;;;;5091647;28;20043;-66
2023/05/03 09:07:11;;;;;;;5.45;2.50;;;11.60;1.00;;;;;;5088385;28;20040;-66
2023/05/03 09:09:37;;;;;;;5.82;2.30;;;11.80;1.00;;;;;;5090316;28;20146;-66
2023/05/03 09:12:04;;;;;;;5.70;2.10;;;11.50;1.00;;;;;;5089000;28;20694;-66
2023/05/03 09:14:30;;;;;;;4.35;2.00;;;11.50;1.00;;;;;;5087862;28;20529;-66
2023/05/03 09:17:15;;;;;;;4.50;1.80;;;11.50;1.00;;;;;;5092355;28;20042;-66
2023/05/03 09:19:55;;;;;;;4.95;2.10;;;11.40;1.00;;;;;;5091664;28;20489;-66
2023/05/03 09:22:26;;;;;;;5.30;1.98;;;11.40;1.00;;;;;;5090676;28;20039;-66
2023/05/03 09:24:57;;;;;;;7.38;2.65;;;11.40;1.00;;;;;;5091202;28;20532;-66
2023/05/03 09:27:23;;;;;;;4.90;1.85;;;11.40;1.00;;;;;;5088258;28;20147;-66
2023/05/03 09:29:50;;;;;;;5.70;2.00;;;11.60;1.00;;;;;;5092160;28;20054;-66
2023/05/03 09:32:16;;;;;;;6.63;2.13;;;11.50;1.00;;;;;;5089589;28;20089;-66
2023/05/03 09:34:42;;;;;;;4.45;2.13;;;11.50;1.00;;;;;;5091421;28;20075;-66
2023/05/03 09:37:08;;;;;;;9.63;4.13;;;11.50;1.00;;;;;;5090888;28;20102;-66
2023/05/03 09:39:35;;;;;;;11.63;2.80;;;11.60;1.00;;;;;;5084740;28;20646;-66
2023/05/03 09:42:15;;;;;;;5.78;2.08;;;11.20;1.00;;;;;;5090347;28;20036;-66
2023/05/03 09:44:41;;;;;;;8.63;2.20;;;11.50;1.00;;;;;;5087372;28;20528;-66
2023/05/03 09:47:07;;;;;;;6.32;3.13;;;11.50;1.00;;;;;;5089768;28;20079;-66
2023/05/03 09:49:33;;;;;;;9.38;2.08;;;11.90;1.00;;;;;;5087696;28;20534;-66
2023/05/03 09:52:00;;;;;;;5.28;1.98;;;11.60;1.00;;;;;;5087880;28;20048;-67
2023/05/03 09:54:27;;;;;;;8.90;2.33;;;11.60;1.00;;;;;;5087263;28;20706;-67
2023/05/03 09:56:54;;;;;;;8.25;2.50;;;11.60;1.00;;;;;;5090896;28;20043;-67
2023/05/03 09:59:20;;;;;;;5.47;2.30;;;11.60;1.00;;;;;;5083637;28;20082;-67
2023/05/03 10:01:46;;;;;;;6.00;2.17;;;11.60;1.00;;;;;;5090550;28;20698;-67
2023/05/03 10:04:16;;;;;;;5.28;2.15;;;11.60;1.00;;;;;;5090027;28;20036;-67
2023/05/03 10:06:45;;;;;;;7.30;2.30;;;11.60;1.00;;;;;;5090871;28;20032;-67
2023/05/03 10:09:15;;;;;;;5.15;2.25;;;11.70;1.00;;;;;;5091301;28;20055;-67
2023/05/03 10:11:52;;;;;;;4.97;2.40;;;11.90;1.00;;;;;;5088327;28;20108;-67
2023/05/03 10:14:22;;;;;;;5.88;2.10;;;12.00;1.00;;;;;;5088237;28;20040;-67
2023/05/03 10:16:57;;;;;;;5.90;2.28;;;12.00;1.00;;;;;;5091040;28;20124;-67
2023/05/03 10:19:29;;;;;;;4.68;2.45;;;11.90;1.00;;;;;;5089448;28;20046;-67
2023/05/03 10:22:02;;;;;;;3.92;1.85;;;12.60;1.00;;;;;;5090745;28;20033;-67
2023/05/03 10:24:27;;;;;;;8.23;2.30;;;12.10;1.00;;;;;;5091101;28;20075;-67
2023/05/03 10:26:55;;;;;;;5.68;2.28;;;12.10;1.00;;;;;;5089383;28;20082;-67
2023/05/03 10:29:47;;;;;;;5.03;2.58;;;12.10;1.00;;;;;;5090404;28;20032;-68
2023/05/03 10:32:32;;;;;;;5.78;2.28;;;12.10;1.00;;;;;;5079508;28;20052;-67
2023/05/03 10:35:02;;;;;;;4.18;2.20;;;12.10;1.00;;;;;;5089529;28;20040;-65
2023/05/03 10:37:28;;;;;;;9.07;2.47;;;12.10;1.00;;;;;;5090510;28;20471;-65
2023/05/03 10:39:55;;;;;;;8.85;2.60;;;12.20;1.00;;;;;;5089282;28;20382;-67
2023/05/03 10:42:23;;;;;;;8.10;2.33;;;12.20;1.00;;;;;;5088814;28;20111;-67
2023/05/03 10:44:53;;;;;;;4.45;2.20;;;12.10;1.00;;;;;;5090888;28;20048;-65
2023/05/03 10:47:23;;;;;;;6.00;2.17;;;12.20;1.00;;;;;;5089930;28;20127;-67
2023/05/03 10:50:23;;;;;;;6.57;2.30;;;12.20;1.00;;;;;;5090492;28;20482;-67
2023/05/03 10:52:48;;;;;;;5.00;2.20;;;12.30;1.00;;;;;;5081816;28;20588;-67
2023/05/03 10:55:19;;;;;;;5.55;2.40;;;12.30;1.00;;;;;;5090069;28;20047;-67
2023/05/03 10:57:47;;;;;;;4.25;2.22;;;12.30;1.00;;;;;;5089642;28;20067;-67
2023/05/03 11:00:17;;;;;;;7.22;2.92;;;12.40;1.00;;;;;;5084967;28;20040;-67
2023/05/03 11:03:24;;;;;;;8.35;3.00;;;12.40;1.00;;;;;;5090103;28;20131;-67
2023/05/03 11:05:51;;;;;;;7.10;2.30;;;12.40;1.00;;;;;;5090244;28;20044;-67
2023/05/03 11:08:19;;;;;;;7.38;2.70;;;12.50;1.00;;;;;;5089325;28;20042;-67
2023/05/03 11:10:45;;;;;;;6.13;2.47;;;12.60;1.00;;;;;;5088627;28;20051;-67
2023/05/03 11:13:11;;;;;;;4.63;2.40;;;12.70;1.00;;;;;;5089733;28;20480;-67
2023/05/03 11:15:37;;;;;;;7.78;2.10;;;12.80;1.00;;;;;;5088871;28;20052;-67
2023/05/03 11:18:07;;;;;;;3.38;2.13;;;12.70;1.00;;;;;;5085679;28;20058;-67
2023/05/03 11:20:34;;;;;;;4.57;2.28;;;12.70;1.00;;;;;;5088277;28;20129;-67
2023/05/03 11:22:59;;;;;;;5.97;2.50;;;12.60;1.00;;;;;;5069552;28;20048;-67
2023/05/03 11:25:25;;;;;;;5.07;2.30;;;12.50;1.00;;;;;;5073193;28;20576;-67
2023/05/03 11:27:51;;;;;;;6.68;2.28;;;12.60;1.00;;;;;;5088826;28;20782;-67
2023/05/03 11:30:17;;;;;;;5.28;2.35;;;12.60;1.00;;;;;;5087866;28;20050;-67
2023/05/03 11:32:42;;;;;;;6.75;2.45;;;12.50;1.00;;;;;;5087631;28;20536;-67
2023/05/03 11:35:09;;;;;;;8.82;2.30;;;12.40;1.00;;;;;;5088490;28;20051;-67
2023/05/03 11:37:35;;;;;;;3.25;2.25;;;12.40;1.00;;;;;;5089313;28;20529;-67
2023/05/03 11:40:01;;;;;;;8.27;2.50;;;12.40;1.00;;;;;;5089132;28;20070;-67
2023/05/03 11:42:27;;;;;;;9.57;2.70;;;12.50;1.00;;;;;;5089501;28;20086;-67
2023/05/03 11:44:53;;;;;;;3.65;2.20;;;12.60;1.00;;;;;;5089717;28;20075;-67
2023/05/03 11:47:20;;;;;;;4.63;2.40;;;12.70;1.00;;;;;;5089472;28;20036;-67
2023/05/03 11:49:53;;;;;;;5.72;2.58;;;12.90;1.00;;;;;;5089466;28;20615;-67
2023/05/03 11:52:23;;;;;;;8.38;2.53;;;12.90;1.00;;;;;;5087724;28;20052;-67
2023/05/03 11:54:53;;;;;;;5.88;2.60;;;12.90;1.00;;;;;;5087047;28;20121;-67
2023/05/03 11:57:20;;;;;;;4.72;2.40;;;12.80;1.00;;;;;;5088817;28;20497;-67
2023/05/03 11:59:46;;;;;;;5.90;2.58;;;12.60;1.00;;;;;;5087169;28;20506;-67
2023/05/03 12:02:13;;;;;;;7.15;2.58;;;12.60;1.00;;;;;;5086660;28;20493;-67
2023/05/03 12:04:40;;;;;;;9.95;2.70;;;12.60;1.00;;;;;;5086642;28;20055;-67
2023/05/03 12:07:06;;;;;;;4.43;2.55;;;12.60;1.00;;;;;;5083207;28;20499;-67
2023/05/03 12:09:32;;;;;;;8.82;2.83;;;12.60;1.00;;;;;;5082192;28;20039;-67
2023/05/03 12:11:59;;;;;;;7.38;2.63;;;12.70;1.00;;;;;;5092377;28;20048;-67
2023/05/03 12:14:25;;;;;;;4.70;2.78;;;12.70;1.00;;;;;;5092870;28;20028;-67
2023/05/03 12:16:52;;;;;;;5.70;2.83;;;12.70;1.00;;;;;;5092779;28;20161;-67
2023/05/03 12:19:28;;;;;;;10.35;3.35;;;12.70;1.00;;;;;;5092665;28;20693;-67
2023/05/03 12:21:55;;;;;;;7.43;2.95;;;12.80;1.00;;;;;;5093057;28;20040;-67
2023/05/03 12:24:22;;;;;;;4.90;2.53;;;12.90;1.00;;;;;;5092234;28;20067;-67
2023/05/03 12:26:50;;;;;;;6.00;2.70;;;12.80;1.00;;;;;;5092416;28;20040;-68
2023/05/03 12:29:16;;;;;;;7.82;2.70;;;12.80;1.00;;;;;;5092566;28;20093;-67
2023/05/03 12:31:42;;;;;;;9.52;3.55;;;12.80;1.00;;;;;;5093010;28;20428;-67
2023/05/03 12:34:07;;;;;;;6.20;3.22;;;12.90;1.00;;;;;;5089562;28;20044;-67
2023/05/03 12:36:34;;;;;;;10.70;3.42;;;13.00;1.00;;;;;;5091079;28;20448;-67
2023/05/03 12:39:00;;;;;;;7.00;2.80;;;12.80;1.00;;;;;;5092432;28;20048;-67
2023/05/03 12:41:28;;;;;;;5.90;2.90;;;12.70;1.00;;;;;;5086425;28;20040;-67
2023/05/03 12:43:56;;;;;;;7.40;2.95;;;12.70;1.00;;;;;;5090708;28;20043;-67
2023/05/03 12:46:25;;;;;;;5.20;2.70;;;12.70;1.00;;;;;;5092547;28;20448;-67
2023/05/03 12:48:52;;;;;;;8.77;2.80;;;13.10;1.00;;;;;;5091350;28;20061;-67
2023/05/03 12:51:17;;;;;;;7.43;2.63;;;12.90;1.00;;;;;;5089759;28;20028;-67
2023/05/03 12:53:44;;;;;;;7.88;2.90;;;12.90;1.00;;;;;;5092001;28;20116;-67
2023/05/03 12:56:10;;;;;;;5.55;2.72;;;12.90;1.00;;;;;;5092057;28;20119;-67
2023/05/03 12:58:35;;;;;;;6.72;2.70;;;12.90;1.00;;;;;;5092669;28;20035;-67